Time;durP1;ratioP1;P1;durP2;ratioP2;P2;SDS_P1;SDS_P2;PMS_P1;PMS_P2;Temp;Humidity;BMP_temperature;BMP_pressure;BME280_temperature;BME280_humidity;BME280_pressure;Samples;Min_cycle;Max_cycle;Signal;HPM_P1;HPM_P2
2022/03/10 00:01:14;;;;;;;0.10;0.10;;;;;;;;;;5008755;28;20042;-89
2022/03/10 00:03:39;;;;;;;0.10;0.10;;;;;;;;;;4992787;28;20129;-88
2022/03/10 00:06:05;;;;;;;0.10;0.10;;;;;;;;;;4992497;28;20036;-89
2022/03/10 00:08:31;;;;;;;0.47;0.35;;;;;;;;;;5008736;28;20089;-89
2022/03/10 00:10:57;;;;;;;0.10;0.10;;;;;;;;;;5008996;28;20045;-89
2022/03/10 00:13:26;;;;;;;0.10;0.10;;;;;;;;;;4992396;28;20049;-88
2022/03/10 00:15:52;;;;;;;0.22;0.22;;;;;;;;;;4992281;28;20049;-89
2022/03/10 00:18:18;;;;;;;0.10;0.10;;;;;;;;;;5009129;28;20026;-90
2022/03/10 00:20:44;;;;;;;0.10;0.10;;;;;;;;;;4992572;28;20035;-90
2022/03/10 00:23:10;;;;;;;0.20;0.20;;;;;;;;;;5008758;28;20053;-90
2022/03/10 00:25:37;;;;;;;0.10;0.10;;;;;;;;;;4992207;28;20045;-88
2022/03/10 00:28:03;;;;;;;1.77;0.35;;;;;;;;;;5008674;28;20421;-88
2022/03/10 00:30:29;;;;;;;0.15;0.15;;;;;;;;;;4991815;28;20045;-88
2022/03/10 00:32:55;;;;;;;0.10;0.10;;;;;;;;;;4991787;28;20566;-88
2022/03/10 00:35:22;;;;;;;0.10;0.10;;;;;;;;;;4991616;28;20053;-87
2022/03/10 00:37:48;;;;;;;0.10;0.10;;;;;;;;;;5007980;28;20054;-88
2022/03/10 00:40:14;;;;;;;0.10;0.10;;;;;;;;;;4991537;28;20097;-87
2022/03/10 00:42:40;;;;;;;0.10;0.10;;;;;;;;;;5008008;28;20458;-89
2022/03/10 00:45:07;;;;;;;0.10;0.10;;;;;;;;;;4975500;28;20077;-87
2022/03/10 00:47:33;;;;;;;0.10;0.10;;;;;;;;;;5007863;28;20054;-87
2022/03/10 00:49:59;;;;;;;0.10;0.10;;;;;;;;;;4991646;28;20097;-87
2022/03/10 00:52:25;;;;;;;0.20;0.20;;;;;;;;;;5007666;28;20074;-87
2022/03/10 00:54:51;;;;;;;0.10;0.10;;;;;;;;;;4991386;28;20045;-87
2022/03/10 00:57:17;;;;;;;0.10;0.10;;;;;;;;;;4991422;28;20402;-87
2022/03/10 00:59:43;;;;;;;0.10;0.10;;;;;;;;;;5007664;28;20046;-87
2022/03/10 01:02:09;;;;;;;0.10;0.10;;;;;;;;;;5007688;28;20038;-87
2022/03/10 01:04:35;;;;;;;0.10;0.10;;;;;;;;;;4991273;28;20046;-87
2022/03/10 01:07:01;;;;;;;0.10;0.10;;;;;;;;;;4991266;28;20168;-88
2022/03/10 01:09:27;;;;;;;0.08;0.08;;;;;;;;;;5007791;28;20066;-88
2022/03/10 01:11:53;;;;;;;0.10;0.10;;;;;;;;;;4991334;28;20045;-88
2022/03/10 01:14:19;;;;;;;0.10;0.10;;;;;;;;;;5007767;28;20074;-88
2022/03/10 01:16:45;;;;;;;0.10;0.10;;;;;;;;;;4991459;28;20105;-88
2022/03/10 01:19:11;;;;;;;0.10;0.10;;;;;;;;;;5007532;28;20043;-87
2022/03/10 01:21:37;;;;;;;0.10;0.10;;;;;;;;;;4991240;28;20034;-89
2022/03/10 01:24:03;;;;;;;0.10;0.10;;;;;;;;;;4991964;28;20074;-88
2022/03/10 01:26:29;;;;;;;0.10;0.10;;;;;;;;;;5011346;28;20034;-88
2022/03/10 01:28:54;;;;;;;0.05;0.05;;;;;;;;;;4995042;28;20038;-88
2022/03/10 01:31:20;;;;;;;0.10;0.10;;;;;;;;;;5011457;28;20042;-88
2022/03/10 01:33:46;;;;;;;0.10;0.10;;;;;;;;;;5011243;28;20078;-88
2022/03/10 01:36:12;;;;;;;0.10;0.10;;;;;;;;;;4994645;28;20053;-88
2022/03/10 01:38:39;;;;;;;0.10;0.10;;;;;;;;;;5011054;28;20038;-88
2022/03/10 01:41:11;;;;;;;0.10;0.10;;;;;;;;;;4994824;28;20554;-88
2022/03/10 01:43:58;;;;;;;0.00;0.00;;;;;;;;;;4994673;28;20524;-88
2022/03/10 01:46:24;;;;;;;0.10;0.10;;;;;;;;;;4978091;28;20074;-88
2022/03/10 01:48:50;;;;;;;0.10;0.10;;;;;;;;;;4994313;28;20070;-88
2022/03/10 01:51:16;;;;;;;0.10;0.10;;;;;;;;;;4978695;28;20042;-88
2022/03/10 01:53:42;;;;;;;0.10;0.10;;;;;;;;;;5010963;28;20042;-88
2022/03/10 01:56:08;;;;;;;0.10;0.10;;;;;;;;;;5010873;28;20057;-88
2022/03/10 01:58:34;;;;;;;0.10;0.10;;;;;;;;;;5010986;28;20100;-88
2022/03/10 02:01:00;;;;;;;0.10;0.10;;;;;;;;;;5010884;28;20046;-88
2022/03/10 02:03:26;;;;;;;0.10;0.10;;;;;;;;;;5010766;28;20042;-88
2022/03/10 02:05:53;;;;;;;0.10;0.10;;;;;;;;;;5010597;28;20076;-88
2022/03/10 02:11:04;;;;;;;0.10;0.10;;;;;;;;;;4982042;28;20046;-89
2022/03/10 02:13:29;;;;;;;0.20;0.20;;;;;;;;;;4994469;28;20051;-88
2022/03/10 02:18:40;;;;;;;0.10;0.10;;;;;;;;;;4980496;28;20058;-87
2022/03/10 02:21:06;;;;;;;0.10;0.10;;;;;;;;;;4995450;28;20146;-88
2022/03/10 02:23:32;;;;;;;0.10;0.10;;;;;;;;;;5012233;28;20065;-88
2022/03/10 02:26:00;;;;;;;0.10;0.10;;;;;;;;;;4977687;28;20038;-88
2022/03/10 02:28:27;;;;;;;0.15;0.15;;;;;;;;;;5010255;28;20089;-88
2022/03/10 02:30:53;;;;;;;0.10;0.10;;;;;;;;;;5010513;28;20478;-88
2022/03/10 02:33:19;;;;;;;0.10;0.10;;;;;;;;;;5010240;28;20038;-88
2022/03/10 02:35:45;;;;;;;0.10;0.10;;;;;;;;;;5010048;28;20077;-88
2022/03/10 02:38:17;;;;;;;0.08;0.08;;;;;;;;;;5010039;28;20128;-88
2022/03/10 02:40:43;;;;;;;0.10;0.10;;;;;;;;;;5009956;28;20050;-88
2022/03/10 02:43:10;;;;;;;0.20;0.20;;;;;;;;;;4993861;28;20394;-89
2022/03/10 02:45:36;;;;;;;0.10;0.10;;;;;;;;;;4993582;28;20042;-88
2022/03/10 02:48:02;;;;;;;0.20;0.20;;;;;;;;;;5009806;28;20050;-89
2022/03/10 02:50:28;;;;;;;0.20;0.20;;;;;;;;;;5009794;28;20085;-88
2022/03/10 02:52:54;;;;;;;0.10;0.10;;;;;;;;;;4993386;28;20077;-87
2022/03/10 02:55:20;;;;;;;0.10;0.10;;;;;;;;;;5009469;28;20042;-87
2022/03/10 02:57:46;;;;;;;0.10;0.10;;;;;;;;;;4993253;28;20474;-88
2022/03/10 03:00:14;;;;;;;0.10;0.10;;;;;;;;;;5009591;28;20064;-88
2022/03/10 03:02:40;;;;;;;0.10;0.10;;;;;;;;;;4993644;28;20043;-88
2022/03/10 03:05:06;;;;;;;0.10;0.10;;;;;;;;;;4993251;28;20117;-89
2022/03/10 03:07:32;;;;;;;0.10;0.10;;;;;;;;;;4993450;28;20065;-88
2022/03/10 03:09:59;;;;;;;0.10;0.10;;;;;;;;;;5009710;28;20504;-89
2022/03/10 03:12:25;;;;;;;0.10;0.10;;;;;;;;;;5009735;28;20371;-88
2022/03/10 03:14:51;;;;;;;0.10;0.10;;;;;;;;;;5009283;28;20042;-88
2022/03/10 03:17:17;;;;;;;0.10;0.10;;;;;;;;;;4992895;28;20052;-88
2022/03/10 03:19:43;;;;;;;0.10;0.10;;;;;;;;;;4992788;28;20042;-88
2022/03/10 03:22:09;;;;;;;0.10;0.10;;;;;;;;;;4992967;28;20085;-88
2022/03/10 03:24:35;;;;;;;0.10;0.10;;;;;;;;;;5009001;28;20049;-88
2022/03/10 03:27:01;;;;;;;0.10;0.10;;;;;;;;;;4992705;28;20042;-88
2022/03/10 03:29:27;;;;;;;0.10;0.10;;;;;;;;;;5009231;28;20049;-89
2022/03/10 03:31:53;;;;;;;0.10;0.10;;;;;;;;;;4992798;28;20042;-89
2022/03/10 03:34:19;;;;;;;0.10;0.10;;;;;;;;;;5009066;28;20037;-89
2022/03/10 03:36:45;;;;;;;0.10;0.10;;;;;;;;;;4992944;28;20046;-88
2022/03/10 03:39:11;;;;;;;0.20;0.20;;;;;;;;;;5009607;28;20445;-89
2022/03/10 03:41:38;;;;;;;0.10;0.10;;;;;;;;;;4992436;28;20053;-87
2022/03/10 03:44:04;;;;;;;0.10;0.10;;;;;;;;;;4976318;28;20316;-87
2022/03/10 03:46:30;;;;;;;0.10;0.10;;;;;;;;;;4991895;28;20551;-88
2022/03/10 03:48:55;;;;;;;0.10;0.10;;;;;;;;;;4992037;28;20050;-88
2022/03/10 03:51:22;;;;;;;0.10;0.10;;;;;;;;;;5008705;28;20058;-88
2022/03/10 03:53:48;;;;;;;0.10;0.10;;;;;;;;;;5008745;28;20152;-87
2022/03/10 03:56:14;;;;;;;0.10;0.10;;;;;;;;;;4976274;28;20433;-87
2022/03/10 03:58:40;;;;;;;0.10;0.10;;;;;;;;;;4992296;28;20107;-87
2022/03/10 04:01:06;;;;;;;0.10;0.10;;;;;;;;;;5008461;28;20129;-88
2022/03/10 04:03:32;;;;;;;0.10;0.10;;;;;;;;;;4975784;28;20042;-88
2022/03/10 04:05:58;;;;;;;0.10;0.10;;;;;;;;;;4992062;28;20042;-88
2022/03/10 04:08:25;;;;;;;0.10;0.10;;;;;;;;;;5008430;28;20038;-88
2022/03/10 04:10:52;;;;;;;0.10;0.10;;;;;;;;;;4991952;28;20129;-89
2022/03/10 04:13:18;;;;;;;0.10;0.10;;;;;;;;;;4975713;28;20042;-88
2022/03/10 04:15:44;;;;;;;0.10;0.10;;;;;;;;;;4992061;28;20061;-88
2022/03/10 04:18:11;;;;;;;0.10;0.10;;;;;;;;;;4975928;28;20086;-88
2022/03/10 04:20:37;;;;;;;0.60;0.40;;;;;;;;;;5008236;28;20189;-88
2022/03/10 04:23:03;;;;;;;0.10;0.10;;;;;;;;;;5008491;28;20045;-89
2022/03/10 04:25:29;;;;;;;0.10;0.10;;;;;;;;;;5008239;28;20038;-88
2022/03/10 04:27:56;;;;;;;0.10;0.10;;;;;;;;;;5008219;28;20500;-89
2022/03/10 04:30:22;;;;;;;0.15;0.15;;;;;;;;;;4975962;28;20482;-89
2022/03/10 04:32:48;;;;;;;0.10;0.10;;;;;;;;;;5008532;28;20054;-96
2022/03/10 04:35:18;;;;;;;0.10;0.10;;;;;;;;;;4976644;28;20112;-89
2022/03/10 04:37:44;;;;;;;0.10;0.10;;;;;;;;;;5008203;28;20054;-88
2022/03/10 04:40:11;;;;;;;0.10;0.10;;;;;;;;;;4991512;28;20053;-88
2022/03/10 04:42:37;;;;;;;0.03;0.03;;;;;;;;;;4991543;28;20481;-88
2022/03/10 04:45:04;;;;;;;0.10;0.10;;;;;;;;;;5007761;28;20448;-88
2022/03/10 04:47:30;;;;;;;0.10;0.10;;;;;;;;;;4991200;28;20494;-88
2022/03/10 04:49:59;;;;;;;0.10;0.10;;;;;;;;;;5007642;28;20048;-88
2022/03/10 04:52:26;;;;;;;0.30;0.15;;;;;;;;;;5008064;28;20046;-88
2022/03/10 04:54:51;;;;;;;0.10;0.10;;;;;;;;;;5007703;28;20049;-88
2022/03/10 04:57:17;;;;;;;0.10;0.10;;;;;;;;;;5008132;28;20046;-88
2022/03/10 04:59:43;;;;;;;0.10;0.10;;;;;;;;;;4994774;28;20105;-88
2022/03/10 05:02:09;;;;;;;0.10;0.10;;;;;;;;;;4979257;28;20397;-88
2022/03/10 05:04:35;;;;;;;0.10;0.10;;;;;;;;;;4995441;28;20057;-89
2022/03/10 05:07:01;;;;;;;0.10;0.10;;;;;;;;;;5011784;28;20049;-88
2022/03/10 05:09:27;;;;;;;0.20;0.20;;;;;;;;;;4995334;28;20050;-88
2022/03/10 05:11:53;;;;;;;0.10;0.10;;;;;;;;;;4995137;28;20038;-88
2022/03/10 05:14:19;;;;;;;0.00;0.00;;;;;;;;;;4995204;28;20049;-87
2022/03/10 05:16:45;;;;;;;0.10;0.10;;;;;;;;;;4995157;28;20450;-87
2022/03/10 05:19:11;;;;;;;0.10;0.10;;;;;;;;;;5011190;28;20085;-88
2022/03/10 05:21:37;;;;;;;0.28;0.28;;;;;;;;;;5011552;28;20502;-88
2022/03/10 05:24:05;;;;;;;0.10;0.10;;;;;;;;;;5011625;28;20363;-88
2022/03/10 05:26:31;;;;;;;0.20;0.20;;;;;;;;;;5011778;28;20461;-87
2022/03/10 05:28:57;;;;;;;0.10;0.10;;;;;;;;;;5011717;28;20077;-88
2022/03/10 05:31:23;;;;;;;0.22;0.20;;;;;;;;;;4994928;28;20038;-88
2022/03/10 05:33:49;;;;;;;0.10;0.10;;;;;;;;;;4995580;28;20053;-89
2022/03/10 05:36:15;;;;;;;0.10;0.10;;;;;;;;;;5011976;28;20158;-87
2022/03/10 05:38:41;;;;;;;0.10;0.10;;;;;;;;;;4978188;28;20077;-88
2022/03/10 05:41:07;;;;;;;0.10;0.10;;;;;;;;;;4978623;28;20046;-88
2022/03/10 05:43:33;;;;;;;0.10;0.10;;;;;;;;;;4978692;28;20034;-87
2022/03/10 05:45:59;;;;;;;0.10;0.10;;;;;;;;;;5010782;28;20096;-87
2022/03/10 05:48:25;;;;;;;0.10;0.10;;;;;;;;;;4994392;28;20134;-88
2022/03/10 05:50:52;;;;;;;0.10;0.10;;;;;;;;;;5011213;28;20053;-87
2022/03/10 05:53:18;;;;;;;0.10;0.10;;;;;;;;;;5011210;28;20212;-87
2022/03/10 05:55:45;;;;;;;0.10;0.10;;;;;;;;;;4994787;28;20077;-88
2022/03/10 05:58:11;;;;;;;0.10;0.10;;;;;;;;;;4994529;28;20049;-88
2022/03/10 06:00:37;;;;;;;0.00;0.00;;;;;;;;;;4994301;28;20498;-88
2022/03/10 06:03:03;;;;;;;0.10;0.10;;;;;;;;;;5010680;28;20045;-88
2022/03/10 06:05:29;;;;;;;0.10;0.10;;;;;;;;;;5010557;28;20125;-88
2022/03/10 06:07:55;;;;;;;0.10;0.10;;;;;;;;;;4994382;28;20120;-87
2022/03/10 06:10:22;;;;;;;0.20;0.20;;;;;;;;;;5010033;28;20042;-87
2022/03/10 06:12:48;;;;;;;0.10;0.10;;;;;;;;;;5010668;28;20042;-88
2022/03/10 06:15:14;;;;;;;0.10;0.10;;;;;;;;;;5010278;28;20048;-88
2022/03/10 06:17:40;;;;;;;0.10;0.10;;;;;;;;;;4994109;28;20468;-88
2022/03/10 06:20:06;;;;;;;0.10;0.10;;;;;;;;;;5010261;28;20046;-88
2022/03/10 06:22:33;;;;;;;0.10;0.10;;;;;;;;;;5010349;28;20046;-88
2022/03/10 06:24:59;;;;;;;0.20;0.20;;;;;;;;;;4977643;28;20474;-88
2022/03/10 06:27:25;;;;;;;0.08;0.08;;;;;;;;;;4993806;28;20085;-88
2022/03/10 06:29:51;;;;;;;0.10;0.10;;;;;;;;;;5010229;28;20082;-88
2022/03/10 06:32:18;;;;;;;0.10;0.10;;;;;;;;;;5010162;28;20038;-88
2022/03/10 06:34:44;;;;;;;0.20;0.20;;;;;;;;;;4993665;28;20050;-88
2022/03/10 06:37:13;;;;;;;0.10;0.10;;;;;;;;;;5010407;28;20406;-88
2022/03/10 06:39:39;;;;;;;0.10;0.10;;;;;;;;;;5009851;28;20038;-89
2022/03/10 06:42:05;;;;;;;0.10;0.10;;;;;;;;;;5009984;28;20053;-88
2022/03/10 06:44:31;;;;;;;0.10;0.10;;;;;;;;;;5009725;28;20153;-88
2022/03/10 06:46:57;;;;;;;0.10;0.10;;;;;;;;;;5009788;28;20038;-88
2022/03/10 06:49:23;;;;;;;0.10;0.10;;;;;;;;;;4993669;28;20061;-88
2022/03/10 06:51:49;;;;;;;0.10;0.10;;;;;;;;;;5009715;28;20038;-88
2022/03/10 06:54:15;;;;;;;0.40;0.40;;;;;;;;;;4993611;28;20053;-89
2022/03/10 06:56:41;;;;;;;0.38;0.38;;;;;;;;;;4993305;28;20042;-90
2022/03/10 06:59:07;;;;;;;0.30;0.30;;;;;;;;;;5009503;28;20050;-89
2022/03/10 07:01:34;;;;;;;0.10;0.10;;;;;;;;;;5009585;28;20070;-88
2022/03/10 07:04:00;;;;;;;0.10;0.10;;;;;;;;;;4993545;28;20442;-89
2022/03/10 07:06:26;;;;;;;0.10;0.10;;;;;;;;;;4993094;28;20065;-88
2022/03/10 07:08:52;;;;;;;0.73;0.47;;;;;;;;;;5009609;28;20049;-88
2022/03/10 07:11:23;;;;;;;0.20;0.20;;;;;;;;;;5009625;28;20046;-88
2022/03/10 07:13:49;;;;;;;0.30;0.30;;;;;;;;;;4992869;28;20506;-88
2022/03/10 07:16:15;;;;;;;0.10;0.10;;;;;;;;;;4993091;28;20085;-88
2022/03/10 07:18:41;;;;;;;0.10;0.10;;;;;;;;;;4992904;28;20052;-89
2022/03/10 07:21:07;;;;;;;0.20;0.20;;;;;;;;;;4992629;28;20451;-89
2022/03/10 07:23:33;;;;;;;0.25;0.25;;;;;;;;;;5008540;28;20129;-90
2022/03/10 07:25:59;;;;;;;0.10;0.10;;;;;;;;;;4975383;28;20150;-89
2022/03/10 07:28:25;;;;;;;0.30;0.30;;;;;;;;;;4983635;28;20042;-90
2022/03/10 07:30:51;;;;;;;0.20;0.20;;;;;;;;;;4961049;28;20082;-88
2022/03/10 07:33:17;;;;;;;0.30;0.30;;;;;;;;;;4989019;28;20072;-89
2022/03/10 07:35:43;;;;;;;0.30;0.30;;;;;;;;;;4976323;28;20050;-88
2022/03/10 07:38:10;;;;;;;0.20;0.20;;;;;;;;;;4976507;28;20043;-86
2022/03/10 07:40:36;;;;;;;0.10;0.10;;;;;;;;;;4982923;28;20066;-86
2022/03/10 07:43:03;;;;;;;0.10;0.10;;;;;;;;;;4976568;28;20397;-86
2022/03/10 07:45:29;;;;;;;0.30;0.30;;;;;;;;;;4976280;28;20552;-86
2022/03/10 07:47:55;;;;;;;0.10;0.10;;;;;;;;;;4992388;28;20073;-86
2022/03/10 07:50:23;;;;;;;0.10;0.10;;;;;;;;;;4976219;28;20086;-85
2022/03/10 07:52:49;;;;;;;0.30;0.30;;;;;;;;;;4976638;28;20065;-87
2022/03/10 07:55:15;;;;;;;0.10;0.10;;;;;;;;;;4975913;28;20205;-85
2022/03/10 07:57:41;;;;;;;0.63;0.55;;;;;;;;;;4992095;28;20074;-86
2022/03/10 08:00:07;;;;;;;0.10;0.10;;;;;;;;;;4959872;28;20050;-86
2022/03/10 08:02:33;;;;;;;0.20;0.20;;;;;;;;;;4976104;28;20038;-86
2022/03/10 08:04:59;;;;;;;0.52;0.52;;;;;;;;;;4992275;28;20199;-86
2022/03/10 08:07:25;;;;;;;0.30;0.30;;;;;;;;;;4959905;28;20546;-87
2022/03/10 08:09:51;;;;;;;0.20;0.20;;;;;;;;;;4975619;28;20046;-87
2022/03/10 08:12:17;;;;;;;0.20;0.20;;;;;;;;;;4975710;28;20042;-86
2022/03/10 08:14:43;;;;;;;0.20;0.20;;;;;;;;;;4991569;28;20041;-87
2022/03/10 08:17:09;;;;;;;0.20;0.20;;;;;;;;;;4975544;28;20042;-86
2022/03/10 08:19:35;;;;;;;0.15;0.15;;;;;;;;;;4975524;28;20043;-86
2022/03/10 08:22:01;;;;;;;0.20;0.10;;;;;;;;;;4975531;28;20122;-86
2022/03/10 08:24:28;;;;;;;0.10;0.10;;;;;;;;;;4975417;28;20038;-87
2022/03/10 08:26:54;;;;;;;0.10;0.10;;;;;;;;;;4959149;28;20050;-86
2022/03/10 08:29:20;;;;;;;0.20;0.20;;;;;;;;;;4975525;28;20046;-86
2022/03/10 08:31:47;;;;;;;0.20;0.20;;;;;;;;;;4975385;28;20046;-86
2022/03/10 08:34:13;;;;;;;0.10;0.10;;;;;;;;;;4975365;28;20050;-86
2022/03/10 08:36:39;;;;;;;0.10;0.10;;;;;;;;;;4991919;28;20157;-90
2022/03/10 08:39:04;;;;;;;0.20;0.20;;;;;;;;;;4975480;28;20038;-86
2022/03/10 08:41:30;;;;;;;0.15;0.15;;;;;;;;;;4975726;28;20125;-85
2022/03/10 08:43:56;;;;;;;0.20;0.20;;;;;;;;;;4975978;28;20050;-87
2022/03/10 08:46:22;;;;;;;0.10;0.10;;;;;;;;;;4959793;28;20042;-92
2022/03/10 08:48:48;;;;;;;0.20;0.20;;;;;;;;;;4959309;28;20442;-86
2022/03/10 08:51:14;;;;;;;0.20;0.20;;;;;;;;;;4975420;28;20109;-86
2022/03/10 08:53:40;;;;;;;0.20;0.20;;;;;;;;;;4975295;28;20038;-87
2022/03/10 08:56:07;;;;;;;0.30;0.30;;;;;;;;;;4958490;28;20351;-87
2022/03/10 08:58:33;;;;;;;0.10;0.10;;;;;;;;;;4975452;28;20098;-86
2022/03/10 09:00:59;;;;;;;0.10;0.10;;;;;;;;;;4975250;28;20102;-86
2022/03/10 09:03:26;;;;;;;0.20;0.20;;;;;;;;;;4959086;28;20038;-86
2022/03/10 09:05:52;;;;;;;0.40;0.40;;;;;;;;;;4959262;28;20046;-87
2022/03/10 09:08:18;;;;;;;0.10;0.10;;;;;;;;;;4958998;28;20366;-86
2022/03/10 09:10:44;;;;;;;0.20;0.20;;;;;;;;;;4975285;28;20092;-87
2022/03/10 09:13:10;;;;;;;0.10;0.10;;;;;;;;;;4991181;28;20046;-87
2022/03/10 09:15:36;;;;;;;0.15;0.15;;;;;;;;;;4991162;28;20042;-86
2022/03/10 09:18:03;;;;;;;0.10;0.10;;;;;;;;;;4959374;28;20092;-87
2022/03/10 09:20:29;;;;;;;0.20;0.20;;;;;;;;;;4991464;28;20498;-87
2022/03/10 09:22:55;;;;;;;0.10;0.10;;;;;;;;;;4958932;28;20043;-86
2022/03/10 09:25:21;;;;;;;0.10;0.10;;;;;;;;;;4991092;28;20406;-87
2022/03/10 09:27:48;;;;;;;0.10;0.10;;;;;;;;;;4974998;28;20065;-86
2022/03/10 09:30:14;;;;;;;0.20;0.20;;;;;;;;;;4959069;28;20116;-86
2022/03/10 09:32:41;;;;;;;0.20;0.20;;;;;;;;;;4975125;28;20478;-85
2022/03/10 09:35:08;;;;;;;0.22;0.22;;;;;;;;;;4990829;28;20054;-87
2022/03/10 09:37:34;;;;;;;0.10;0.10;;;;;;;;;;4974912;28;20047;-85
2022/03/10 09:40:00;;;;;;;0.20;0.20;;;;;;;;;;4974998;28;20050;-86
2022/03/10 09:42:30;;;;;;;0.20;0.20;;;;;;;;;;4974929;28;20433;-87
2022/03/10 09:45:00;;;;;;;0.40;0.40;;;;;;;;;;4959019;28;20081;-86
2022/03/10 09:47:26;;;;;;;0.10;0.10;;;;;;;;;;4978471;28;20047;-87
2022/03/10 09:49:52;;;;;;;0.10;0.10;;;;;;;;;;4978371;28;20080;-87
2022/03/10 09:52:18;;;;;;;0.32;0.32;;;;;;;;;;4978471;28;20038;-86
2022/03/10 09:54:44;;;;;;;0.22;0.22;;;;;;;;;;4994380;28;20057;-87
2022/03/10 09:57:10;;;;;;;0.30;0.30;;;;;;;;;;4978291;28;20061;-87
2022/03/10 09:59:47;;;;;;;0.20;0.20;;;;;;;;;;4994200;28;20092;-86
2022/03/10 10:02:13;;;;;;;0.17;0.17;;;;;;;;;;4978299;28;20038;-86
2022/03/10 10:04:41;;;;;;;0.20;0.20;;;;;;;;;;4977793;28;20044;-86
2022/03/10 10:07:08;;;;;;;0.22;0.22;;;;;;;;;;4978052;28;20048;-85
2022/03/10 10:09:44;;;;;;;0.30;0.30;;;;;;;;;;4994387;28;20105;-86
2022/03/10 10:12:10;;;;;;;0.30;0.30;;;;;;;;;;4978124;28;20053;-87
2022/03/10 10:14:37;;;;;;;0.38;0.38;;;;;;;;;;4978033;28;20050;-87
2022/03/10 10:17:03;;;;;;;0.20;0.20;;;;;;;;;;4978112;28;20046;-86
2022/03/10 10:19:29;;;;;;;0.20;0.20;;;;;;;;;;4993921;28;20182;-87
2022/03/10 10:22:24;;;;;;;0.10;0.10;;;;;;;;;;4977805;28;20486;-86
2022/03/10 10:25:00;;;;;;;0.20;0.20;;;;;;;;;;4977668;28;20046;-87
2022/03/10 10:27:26;;;;;;;0.22;0.22;;;;;;;;;;4962009;28;20418;-86
2022/03/10 10:29:53;;;;;;;0.10;0.10;;;;;;;;;;4977731;28;20073;-87
2022/03/10 10:32:25;;;;;;;0.70;0.68;;;;;;;;;;4977706;28;20093;-86
2022/03/10 10:35:20;;;;;;;0.30;0.30;;;;;;;;;;4993947;28;20049;-86
2022/03/10 10:37:49;;;;;;;0.15;0.15;;;;;;;;;;4992379;28;20086;-86
2022/03/10 10:40:22;;;;;;;0.60;0.60;;;;;;;;;;4961719;28;20047;-87
2022/03/10 10:42:48;;;;;;;0.30;0.30;;;;;;;;;;4961308;28;20057;-86
2022/03/10 10:45:33;;;;;;;0.10;0.10;;;;;;;;;;4961223;28;20049;-86
2022/03/10 10:48:06;;;;;;;0.32;0.32;;;;;;;;;;4977125;28;20064;-86
2022/03/10 10:50:33;;;;;;;0.20;0.20;;;;;;;;;;4977691;28;20057;-87
2022/03/10 10:52:59;;;;;;;0.30;0.30;;;;;;;;;;4977354;28;20477;-86
2022/03/10 10:55:38;;;;;;;0.30;0.30;;;;;;;;;;4977044;28;20042;-85
2022/03/10 10:58:07;;;;;;;0.40;0.40;;;;;;;;;;4977287;28;20390;-89
2022/03/10 11:00:46;;;;;;;0.40;0.40;;;;;;;;;;4977162;28;20406;-87
2022/03/10 11:03:28;;;;;;;0.30;0.30;;;;;;;;;;4977146;28;20042;-86
2022/03/10 11:05:54;;;;;;;0.20;0.20;;;;;;;;;;4977056;28;20540;-86
2022/03/10 11:08:21;;;;;;;0.20;0.20;;;;;;;;;;4977081;28;20094;-86
2022/03/10 11:10:47;;;;;;;0.38;0.38;;;;;;;;;;4960990;28;20093;-86
2022/03/10 11:13:13;;;;;;;0.10;0.10;;;;;;;;;;4992897;28;20074;-86
2022/03/10 11:15:40;;;;;;;0.20;0.20;;;;;;;;;;4992977;28;20065;-86
2022/03/10 11:18:06;;;;;;;0.10;0.10;;;;;;;;;;4960976;28;20050;-86
2022/03/10 11:20:32;;;;;;;1.45;0.20;;;;;;;;;;4960730;28;20038;-86
2022/03/10 11:23:10;;;;;;;0.38;0.38;;;;;;;;;;4960675;28;20038;-87
2022/03/10 11:25:55;;;;;;;0.20;0.20;;;;;;;;;;4976491;28;20035;-86
2022/03/10 11:28:21;;;;;;;1.55;1.20;;;;;;;;;;4992742;28;20129;-86
2022/03/10 11:30:49;;;;;;;0.28;0.20;;;;;;;;;;4960396;28;20042;-86
2022/03/10 11:33:18;;;;;;;0.95;0.95;;;;;;;;;;4976637;28;20042;-87
2022/03/10 11:35:47;;;;;;;0.20;0.20;;;;;;;;;;4976813;28;20490;-85
2022/03/10 11:38:14;;;;;;;0.65;0.32;;;;;;;;;;4976411;28;20069;-86
2022/03/10 11:40:46;;;;;;;0.40;0.40;;;;;;;;;;4992530;28;20053;-86
2022/03/10 11:43:12;;;;;;;0.20;0.20;;;;;;;;;;4992431;28;20118;-86
2022/03/10 11:45:38;;;;;;;0.20;0.20;;;;;;;;;;4976348;28;20042;-86
2022/03/10 11:48:23;;;;;;;0.20;0.20;;;;;;;;;;4976080;28;20478;-86
2022/03/10 11:50:52;;;;;;;2.28;0.30;;;;;;;;;;4976061;28;20061;-86
2022/03/10 11:53:18;;;;;;;0.10;0.10;;;;;;;;;;4975975;28;20452;-86
2022/03/10 11:55:51;;;;;;;0.35;0.35;;;;;;;;;;4975993;28;20038;-86
2022/03/10 11:58:21;;;;;;;0.43;0.35;;;;;;;;;;4992215;28;20042;-85
2022/03/10 12:00:53;;;;;;;0.10;0.10;;;;;;;;;;4991996;28;20642;-86
2022/03/10 12:03:34;;;;;;;0.10;0.10;;;;;;;;;;4976045;28;20042;-86
2022/03/10 12:06:00;;;;;;;0.20;0.20;;;;;;;;;;4976051;28;20416;-85
2022/03/10 12:08:26;;;;;;;0.30;0.30;;;;;;;;;;4991483;28;20042;-86
2022/03/10 12:10:52;;;;;;;0.10;0.10;;;;;;;;;;4959900;28;20050;-85
2022/03/10 12:13:23;;;;;;;0.10;0.10;;;;;;;;;;4959735;28;20181;-85
2022/03/10 12:15:49;;;;;;;0.20;0.20;;;;;;;;;;4975775;28;20050;-85
2022/03/10 12:18:16;;;;;;;0.10;0.10;;;;;;;;;;4975892;28;20433;-85
2022/03/10 12:20:45;;;;;;;0.10;0.10;;;;;;;;;;4959871;28;20049;-87
2022/03/10 12:23:12;;;;;;;1.48;0.90;;;;;;;;;;4975763;28;20041;-86
2022/03/10 12:25:39;;;;;;;0.40;0.40;;;;;;;;;;4975766;28;20049;-86
2022/03/10 12:28:05;;;;;;;0.75;0.32;;;;;;;;;;4975648;28;20045;-86
2022/03/10 12:30:31;;;;;;;0.45;0.45;;;;;;;;;;4975604;28;20402;-85
2022/03/10 12:32:59;;;;;;;0.20;0.20;;;;;;;;;;4975726;28;20043;-86
2022/03/10 12:35:29;;;;;;;0.20;0.20;;;;;;;;;;4975556;28;20053;-86
2022/03/10 12:37:55;;;;;;;0.38;0.30;;;;;;;;;;4975644;28;20046;-86
2022/03/10 12:40:22;;;;;;;0.20;0.20;;;;;;;;;;4975440;28;20383;-85
2022/03/10 12:42:48;;;;;;;0.10;0.10;;;;;;;;;;4975436;28;20486;-85
2022/03/10 12:45:14;;;;;;;0.45;0.45;;;;;;;;;;4975440;28;20054;-87
2022/03/10 12:47:40;;;;;;;2.92;0.65;;;;;;;;;;4975365;28;20058;-86
2022/03/10 12:50:07;;;;;;;0.22;0.22;;;;;;;;;;4975361;28;20042;-85
2022/03/10 12:52:40;;;;;;;0.40;0.40;;;;;;;;;;4975401;28;20097;-85
2022/03/10 12:55:06;;;;;;;0.75;0.45;;;;;;;;;;4959548;28;20394;-85
2022/03/10 12:57:32;;;;;;;0.40;0.40;;;;;;;;;;4975680;28;20429;-86
2022/03/10 12:59:58;;;;;;;0.25;0.20;;;;;;;;;;4975153;28;20049;-85
2022/03/10 13:02:26;;;;;;;0.22;0.22;;;;;;;;;;4959332;28;20042;-85
2022/03/10 13:04:53;;;;;;;0.10;0.10;;;;;;;;;;4975131;28;20038;-86
2022/03/10 13:07:21;;;;;;;0.28;0.28;;;;;;;;;;4975626;28;20050;-86
2022/03/10 13:09:51;;;;;;;0.30;0.30;;;;;;;;;;4975624;28;20072;-85
2022/03/10 13:12:23;;;;;;;1.13;0.52;;;;;;;;;;4959163;28;20053;-86
2022/03/10 13:14:49;;;;;;;0.30;0.30;;;;;;;;;;4975226;28;20046;-86
2022/03/10 13:17:15;;;;;;;0.20;0.20;;;;;;;;;;4959195;28;20087;-85
2022/03/10 13:19:41;;;;;;;0.63;0.63;;;;;;;;;;4975227;28;20081;-85
2022/03/10 13:22:07;;;;;;;0.20;0.20;;;;;;;;;;4978851;28;20406;-86
2022/03/10 13:24:41;;;;;;;0.10;0.10;;;;;;;;;;4979087;28;20167;-85
2022/03/10 13:27:08;;;;;;;0.20;0.20;;;;;;;;;;4979037;28;20053;-86
2022/03/10 13:29:34;;;;;;;0.60;0.60;;;;;;;;;;4994907;28;20501;-85
2022/03/10 13:32:00;;;;;;;0.20;0.20;;;;;;;;;;4978853;28;20092;-85
2022/03/10 13:34:26;;;;;;;0.20;0.20;;;;;;;;;;4978716;28;20050;-86
2022/03/10 13:36:52;;;;;;;0.20;0.20;;;;;;;;;;4978691;28;20077;-85
2022/03/10 13:39:22;;;;;;;0.60;0.60;;;;;;;;;;4995001;28;20144;-85
2022/03/10 13:41:48;;;;;;;0.10;0.10;;;;;;;;;;4978619;28;20043;-86
2022/03/10 13:44:15;;;;;;;0.25;0.25;;;;;;;;;;4995098;28;20034;-86
2022/03/10 13:46:41;;;;;;;0.40;0.35;;;;;;;;;;4978586;28;20074;-86
2022/03/10 13:49:26;;;;;;;1.60;1.50;;;;;;;;;;4978450;28;20062;-86
2022/03/10 13:51:52;;;;;;;0.20;0.20;;;;;;;;;;4962431;28;20077;-85
2022/03/10 13:54:18;;;;;;;0.40;0.38;;;;;;;;;;4994582;28;20074;-86
2022/03/10 13:56:46;;;;;;;0.30;0.30;;;;;;;;;;4978479;28;20454;-86
2022/03/10 13:59:12;;;;;;;0.95;0.80;;;;;;;;;;4978119;28;20048;-86
2022/03/10 14:01:38;;;;;;;3.20;1.70;;;;;;;;;;4978550;28;20393;-86
2022/03/10 14:04:09;;;;;;;0.10;0.10;;;;;;;;;;4994172;28;20046;-85
2022/03/10 14:06:45;;;;;;;0.40;0.40;;;;;;;;;;4978170;28;20521;-86
2022/03/10 14:09:18;;;;;;;0.25;0.25;;;;;;;;;;4978086;28;20085;-86
2022/03/10 14:11:45;;;;;;;0.30;0.30;;;;;;;;;;4994279;28;20082;-86
2022/03/10 14:14:11;;;;;;;0.17;0.17;;;;;;;;;;4961933;28;20038;-86
2022/03/10 14:16:37;;;;;;;0.50;0.50;;;;;;;;;;4993907;28;20042;-85
2022/03/10 14:19:03;;;;;;;1.13;0.70;;;;;;;;;;4977831;28;20046;-86
2022/03/10 14:21:29;;;;;;;0.20;0.20;;;;;;;;;;4978038;28;20472;-86
2022/03/10 14:23:59;;;;;;;0.80;0.80;;;;;;;;;;4977874;28;20125;-86
2022/03/10 14:26:25;;;;;;;0.15;0.15;;;;;;;;;;4961722;28;20034;-85
2022/03/10 14:28:51;;;;;;;0.25;0.25;;;;;;;;;;4993901;28;20125;-85
2022/03/10 14:31:24;;;;;;;0.30;0.30;;;;;;;;;;4977387;28;20042;-85
2022/03/10 14:33:51;;;;;;;1.02;0.40;;;;;;;;;;4977789;28;20049;-85
2022/03/10 14:36:18;;;;;;;1.27;0.82;;;;;;;;;;4993756;28;20038;-85
2022/03/10 14:38:45;;;;;;;0.20;0.20;;;;;;;;;;4977759;28;20100;-86
2022/03/10 14:41:17;;;;;;;0.20;0.20;;;;;;;;;;4993549;28;20043;-86
2022/03/10 14:43:43;;;;;;;0.30;0.28;;;;;;;;;;4993713;28;20046;-86
2022/03/10 14:46:09;;;;;;;0.10;0.10;;;;;;;;;;4977527;28;20548;-87
2022/03/10 14:48:35;;;;;;;1.65;0.47;;;;;;;;;;4977395;28;20058;-87